Time;durP1;ratioP1;P1;durP2;ratioP2;P2;SDS_P1;SDS_P2;PMS_P1;PMS_P2;Temp;Humidity;BMP_temperature;BMP_pressure;BME280_temperature;BME280_humidity;BME280_pressure;Samples;Min_cycle;Max_cycle;Signal;HPM_P1;HPM_P2
2021/12/10 00:01:39;;;;;;;9.50;5.57;;;;;;;;;;5113686;27;20024;-70
2021/12/10 00:04:07;;;;;;;10.73;5.93;;;;;;;;;;5136177;27;20483;-70
2021/12/10 00:06:36;;;;;;;7.43;5.47;;;;;;;;;;5136220;27;20019;-71
2021/12/10 00:09:10;;;;;;;9.20;5.70;;;;;;;;;;5116881;27;20023;-70
2021/12/10 00:11:40;;;;;;;8.93;6.37;;;;;;;;;;5122734;27;20023;-70
2021/12/10 00:14:05;;;;;;;10.60;5.40;;;;;;;;;;5122870;27;20019;-70
2021/12/10 00:16:32;;;;;;;8.67;5.77;;;;;;;;;;5135335;27;20050;-69
2021/12/10 00:19:11;;;;;;;9.90;5.63;;;;;;;;;;5135467;27;20379;-70
2021/12/10 00:21:36;;;;;;;7.90;4.80;;;;;;;;;;5119230;27;20029;-69
2021/12/10 00:24:02;;;;;;;10.63;5.33;;;;;;;;;;5135712;27;20023;-70
2021/12/10 00:26:27;;;;;;;7.93;5.13;;;;;;;;;;5135274;27;20471;-70
2021/12/10 00:29:01;;;;;;;10.20;5.27;;;;;;;;;;5112787;27;20022;-70
2021/12/10 00:31:43;;;;;;;7.10;5.53;;;;;;;;;;5112493;28;20036;-70
2021/12/10 00:34:08;;;;;;;8.77;5.33;;;;;;;;;;5116865;27;20023;-70
2021/12/10 00:36:36;;;;;;;8.10;5.10;;;;;;;;;;5135733;27;20023;-71
2021/12/10 00:39:03;;;;;;;6.30;5.10;;;;;;;;;;5116764;27;20023;-70
2021/12/10 00:41:28;;;;;;;9.80;4.87;;;;;;;;;;5133431;27;20022;-70
2021/12/10 00:43:54;;;;;;;8.97;5.60;;;;;;;;;;5116484;27;20019;-68
2021/12/10 00:46:19;;;;;;;8.10;5.40;;;;;;;;;;5116832;27;20031;-69
2021/12/10 00:48:44;;;;;;;9.20;4.77;;;;;;;;;;5134762;27;20022;-71
2021/12/10 00:51:11;;;;;;;6.97;4.93;;;;;;;;;;5133188;27;20015;-70
2021/12/10 00:53:37;;;;;;;6.97;5.30;;;;;;;;;;5115992;27;20045;-70
2021/12/10 00:56:04;;;;;;;7.43;5.43;;;;;;;;;;5134697;27;20464;-71
2021/12/10 00:58:29;;;;;;;7.93;4.80;;;;;;;;;;5113609;27;20023;-70
2021/12/10 01:00:57;;;;;;;9.13;4.87;;;;;;;;;;5131991;27;20083;-71
2021/12/10 01:03:27;;;;;;;7.93;4.87;;;;;;;;;;5133356;27;20047;-70
2021/12/10 01:05:54;;;;;;;8.13;4.50;;;;;;;;;;5119067;27;20161;-70
2021/12/10 01:08:20;;;;;;;8.17;4.47;;;;;;;;;;5115789;27;20042;-69
2021/12/10 01:10:48;;;;;;;9.60;4.80;;;;;;;;;;5116440;27;20383;-70
2021/12/10 01:13:17;;;;;;;7.80;4.40;;;;;;;;;;5132862;27;20051;-69
2021/12/10 01:16:07;;;;;;;6.60;4.23;;;;;;;;;;5115279;27;20018;-71
2021/12/10 01:23:52;;;;;;;8.27;4.07;;;;;;;;;;5130168;27;20031;-71
2021/12/10 01:28:48;;;;;;;9.23;5.13;;;;;;;;;;5131132;27;20105;-69
2021/12/10 01:31:13;;;;;;;6.40;4.53;;;;;;;;;;5118911;27;20386;-69
2021/12/10 01:33:39;;;;;;;7.80;4.30;;;;;;;;;;5123655;27;20021;-69
2021/12/10 01:36:07;;;;;;;8.67;3.90;;;;;;;;;;5114285;27;20015;-69
2021/12/10 01:38:33;;;;;;;8.50;4.10;;;;;;;;;;5092848;27;20019;-69
2021/12/10 01:41:00;;;;;;;8.70;4.50;;;;;;;;;;5115544;27;20387;-70
2021/12/10 01:43:26;;;;;;;8.97;4.37;;;;;;;;;;5116706;27;20019;-70
2021/12/10 01:46:01;;;;;;;8.27;4.40;;;;;;;;;;5114776;27;20019;-69
2021/12/10 01:48:28;;;;;;;6.38;4.13;;;;;;;;;;5128433;27;20024;-70
2021/12/10 01:50:55;;;;;;;6.67;4.00;;;;;;;;;;5123728;27;20023;-70
2021/12/10 01:53:22;;;;;;;7.37;4.40;;;;;;;;;;5131182;27;20015;-69
2021/12/10 01:55:49;;;;;;;7.80;4.07;;;;;;;;;;5127671;27;20490;-71
2021/12/10 01:58:19;;;;;;;8.67;4.10;;;;;;;;;;5113914;27;21427;-70
2021/12/10 02:00:49;;;;;;;6.90;3.97;;;;;;;;;;5129904;27;20023;-70
2021/12/10 02:03:15;;;;;;;7.53;3.70;;;;;;;;;;5112071;27;20043;-70
2021/12/10 02:05:40;;;;;;;4.83;3.80;;;;;;;;;;5114587;27;20091;-70
2021/12/10 02:08:05;;;;;;;6.73;4.10;;;;;;;;;;5123428;27;20027;-69
2021/12/10 02:10:30;;;;;;;6.83;4.17;;;;;;;;;;5114787;27;20019;-70
2021/12/10 02:12:56;;;;;;;7.67;4.20;;;;;;;;;;5115024;27;20032;-70
2021/12/10 02:15:25;;;;;;;5.93;3.97;;;;;;;;;;5113734;27;20023;-69
2021/12/10 02:17:51;;;;;;;5.67;3.80;;;;;;;;;;5111444;27;20053;-71
2021/12/10 02:20:18;;;;;;;6.03;3.90;;;;;;;;;;5132871;27;20043;-70
2021/12/10 02:22:44;;;;;;;7.97;4.80;;;;;;;;;;5133664;27;20022;-70
2021/12/10 02:25:10;;;;;;;7.37;4.40;;;;;;;;;;5114757;27;20059;-70
2021/12/10 02:27:35;;;;;;;6.50;4.33;;;;;;;;;;5130936;27;20054;-69
2021/12/10 02:30:00;;;;;;;7.83;4.10;;;;;;;;;;5124290;27;20027;-70
2021/12/10 02:32:26;;;;;;;7.00;4.17;;;;;;;;;;5114273;27;20030;-70
2021/12/10 02:34:53;;;;;;;9.10;4.70;;;;;;;;;;5132963;27;20493;-70
2021/12/10 02:37:19;;;;;;;7.90;3.93;;;;;;;;;;5114512;27;20031;-69
2021/12/10 02:39:44;;;;;;;6.77;4.40;;;;;;;;;;5126492;27;20035;-70
2021/12/10 02:42:09;;;;;;;7.53;4.30;;;;;;;;;;5114003;27;20498;-70
2021/12/10 02:44:35;;;;;;;7.40;4.40;;;;;;;;;;5133326;27;20098;-70
2021/12/10 02:47:01;;;;;;;9.47;4.63;;;;;;;;;;5132001;27;20019;-70
2021/12/10 02:49:27;;;;;;;6.53;4.53;;;;;;;;;;5132134;27;20019;-70
2021/12/10 02:51:53;;;;;;;7.17;4.63;;;;;;;;;;5087435;27;20027;-70
2021/12/10 02:54:23;;;;;;;7.00;4.93;;;;;;;;;;5114217;27;20464;-71
2021/12/10 02:56:49;;;;;;;10.47;4.93;;;;;;;;;;5114154;27;20135;-69
2021/12/10 02:59:15;;;;;;;8.53;4.87;;;;;;;;;;5129377;27;20026;-69
2021/12/10 03:01:40;;;;;;;6.67;3.73;;;;;;;;;;5106911;27;20028;-69
2021/12/10 03:04:07;;;;;;;6.60;4.60;;;;;;;;;;5131401;27;20536;-69
2021/12/10 03:06:34;;;;;;;6.33;3.83;;;;;;;;;;5096117;27;20027;-70
2021/12/10 03:08:59;;;;;;;6.60;4.13;;;;;;;;;;5112696;27;20026;-70
2021/12/10 03:11:26;;;;;;;8.83;4.07;;;;;;;;;;5096498;28;20027;-70
2021/12/10 03:13:52;;;;;;;6.40;4.07;;;;;;;;;;5114026;28;20125;-70
2021/12/10 03:16:18;;;;;;;8.60;4.53;;;;;;;;;;5112804;28;20106;-69
2021/12/10 03:18:43;;;;;;;7.57;3.70;;;;;;;;;;5113678;28;20080;-71
2021/12/10 03:21:09;;;;;;;6.83;4.13;;;;;;;;;;5110281;28;20243;-70
2021/12/10 03:23:42;;;;;;;5.67;4.37;;;;;;;;;;5113575;28;20046;-70
2021/12/10 03:26:08;;;;;;;6.50;3.90;;;;;;;;;;5132576;28;20075;-70
2021/12/10 03:28:33;;;;;;;6.10;3.90;;;;;;;;;;5130222;27;20050;-70
2021/12/10 03:30:58;;;;;;;5.73;4.00;;;;;;;;;;5128705;28;20584;-70
2021/12/10 03:33:24;;;;;;;6.10;4.17;;;;;;;;;;5111567;28;20495;-70
2021/12/10 03:35:50;;;;;;;5.20;3.47;;;;;;;;;;5113672;28;20038;-70
2021/12/10 03:38:17;;;;;;;7.03;4.17;;;;;;;;;;5112840;28;20019;-70
2021/12/10 03:40:43;;;;;;;6.93;3.70;;;;;;;;;;5112545;28;20026;-69
2021/12/10 03:43:08;;;;;;;6.67;4.10;;;;;;;;;;5112565;28;20023;-70
2021/12/10 03:45:35;;;;;;;4.43;3.30;;;;;;;;;;5132696;28;20030;-70
2021/12/10 03:48:02;;;;;;;6.93;4.43;;;;;;;;;;5106368;28;20027;-70
2021/12/10 03:50:30;;;;;;;9.53;4.20;;;;;;;;;;5132593;28;20039;-70
2021/12/10 03:52:56;;;;;;;9.57;4.30;;;;;;;;;;5113339;28;20023;-70
2021/12/10 03:55:22;;;;;;;5.90;3.50;;;;;;;;;;5113861;28;20116;-70
2021/12/10 03:57:48;;;;;;;8.63;4.40;;;;;;;;;;5113288;28;20055;-70
2021/12/10 04:00:14;;;;;;;7.87;4.47;;;;;;;;;;5109727;28;20055;-70
2021/12/10 04:02:39;;;;;;;6.43;4.30;;;;;;;;;;5131172;28;20047;-70
2021/12/10 04:05:05;;;;;;;6.43;4.27;;;;;;;;;;5113208;28;20114;-70
2021/12/10 04:07:30;;;;;;;8.80;4.17;;;;;;;;;;5096574;28;20387;-70
2021/12/10 04:09:58;;;;;;;7.77;4.00;;;;;;;;;;5113760;28;20027;-70
2021/12/10 04:12:23;;;;;;;6.47;4.30;;;;;;;;;;5129890;28;20443;-70
2021/12/10 04:14:49;;;;;;;6.23;4.17;;;;;;;;;;5132048;27;20111;-70
2021/12/10 04:17:17;;;;;;;6.83;4.03;;;;;;;;;;5134971;27;20015;-70
2021/12/10 04:19:44;;;;;;;6.60;3.90;;;;;;;;;;5117009;27;20019;-70
2021/12/10 04:22:10;;;;;;;6.93;3.80;;;;;;;;;;5117381;27;20531;-70
2021/12/10 04:24:37;;;;;;;7.70;3.83;;;;;;;;;;5132172;27;20102;-70
2021/12/10 04:27:03;;;;;;;8.83;3.83;;;;;;;;;;5135168;27;20488;-69
2021/12/10 04:29:29;;;;;;;6.57;3.73;;;;;;;;;;5113621;27;20027;-70
2021/12/10 04:31:56;;;;;;;7.03;4.20;;;;;;;;;;5107985;27;20018;-70
2021/12/10 04:34:22;;;;;;;7.87;3.90;;;;;;;;;;5116315;27;20030;-71
2021/12/10 04:36:47;;;;;;;6.87;4.20;;;;;;;;;;5113993;28;20024;-69
2021/12/10 04:39:13;;;;;;;5.70;4.03;;;;;;;;;;5116440;27;20027;-70
2021/12/10 04:41:38;;;;;;;17.20;11.23;;;;;;;;;;5117511;27;20428;-70
2021/12/10 04:44:04;;;;;;;10.40;5.80;;;;;;;;;;5116595;27;20387;-70
2021/12/10 04:46:29;;;;;;;8.50;5.07;;;;;;;;;;5127064;27;20054;-70
2021/12/10 04:49:02;;;;;;;8.07;4.90;;;;;;;;;;5116275;27;20023;-70
2021/12/10 04:51:29;;;;;;;6.77;5.00;;;;;;;;;;5135615;27;20129;-70
2021/12/10 04:53:56;;;;;;;8.97;5.40;;;;;;;;;;5116316;27;20016;-70
2021/12/10 04:56:21;;;;;;;7.30;4.93;;;;;;;;;;5115975;27;20023;-70
2021/12/10 04:58:47;;;;;;;6.13;5.13;;;;;;;;;;5131825;27;20015;-70
2021/12/10 05:01:12;;;;;;;7.73;5.13;;;;;;;;;;5134195;27;20370;-70
2021/12/10 05:03:37;;;;;;;6.80;4.97;;;;;;;;;;5133939;27;20113;-70
2021/12/10 05:06:04;;;;;;;8.77;5.50;;;;;;;;;;5133009;27;20424;-70
2021/12/10 05:08:33;;;;;;;9.37;5.70;;;;;;;;;;5093506;28;20091;-69
2021/12/10 05:10:58;;;;;;;9.77;6.20;;;;;;;;;;5131393;27;20029;-69
2021/12/10 05:13:24;;;;;;;7.40;5.50;;;;;;;;;;5104238;27;20023;-70
2021/12/10 05:15:59;;;;;;;9.00;5.63;;;;;;;;;;5098230;27;20058;-70
2021/12/10 05:18:25;;;;;;;10.57;6.35;;;;;;;;;;5102033;27;20020;-69
2021/12/10 05:20:51;;;;;;;9.83;5.37;;;;;;;;;;5134578;27;20127;-69
2021/12/10 05:23:17;;;;;;;9.30;5.57;;;;;;;;;;5116051;27;20015;-69
2021/12/10 05:25:43;;;;;;;7.97;5.53;;;;;;;;;;5114307;27;20023;-70
2021/12/10 05:28:08;;;;;;;9.83;5.60;;;;;;;;;;5114332;27;20038;-70
2021/12/10 05:30:34;;;;;;;8.33;5.03;;;;;;;;;;5122585;27;20073;-69
2021/12/10 05:33:01;;;;;;;9.67;5.90;;;;;;;;;;5113567;27;20395;-71
2021/12/10 05:35:27;;;;;;;10.23;5.97;;;;;;;;;;5116136;27;20051;-70
2021/12/10 05:37:52;;;;;;;8.82;6.35;;;;;;;;;;5130589;27;20046;-70
2021/12/10 05:40:17;;;;;;;8.47;5.93;;;;;;;;;;5134212;27;20030;-70
2021/12/10 05:42:44;;;;;;;8.50;5.30;;;;;;;;;;5098678;27;20027;-70
2021/12/10 05:45:09;;;;;;;8.50;5.97;;;;;;;;;;5115589;27;20027;-71
2021/12/10 05:47:35;;;;;;;10.90;6.70;;;;;;;;;;5107366;27;20016;-70
2021/12/10 05:50:00;;;;;;;12.00;7.40;;;;;;;;;;5123104;27;20035;-69
2021/12/10 05:52:25;;;;;;;8.97;6.80;;;;;;;;;;5115254;27;20027;-70
2021/12/10 05:54:52;;;;;;;12.10;8.27;;;;;;;;;;5133520;27;20035;-70
2021/12/10 05:57:17;;;;;;;8.87;6.77;;;;;;;;;;5115604;27;20432;-70
2021/12/10 05:59:42;;;;;;;9.77;7.03;;;;;;;;;;5111504;27;20035;-70
2021/12/10 06:02:08;;;;;;;9.77;7.57;;;;;;;;;;5107691;27;20067;-71
2021/12/10 06:04:34;;;;;;;11.40;7.60;;;;;;;;;;5112114;27;20019;-69
2021/12/10 06:07:00;;;;;;;9.53;7.47;;;;;;;;;;5116400;27;20027;-70
2021/12/10 06:09:25;;;;;;;14.77;8.73;;;;;;;;;;5108993;27;20076;-70
2021/12/10 06:11:50;;;;;;;12.30;7.97;;;;;;;;;;5128482;27;20112;-69
2021/12/10 06:14:16;;;;;;;10.20;7.77;;;;;;;;;;5114463;27;20289;-71
2021/12/10 06:16:42;;;;;;;11.17;7.73;;;;;;;;;;5117328;27;20022;-69
2021/12/10 06:19:07;;;;;;;8.90;6.83;;;;;;;;;;5131606;27;20019;-71
2021/12/10 06:21:33;;;;;;;10.53;7.10;;;;;;;;;;5126541;27;20022;-70
2021/12/10 06:23:59;;;;;;;10.37;6.03;;;;;;;;;;5113585;27;20023;-70
2021/12/10 06:26:24;;;;;;;8.17;5.57;;;;;;;;;;5132473;27;20364;-69
2021/12/10 06:28:49;;;;;;;8.27;5.63;;;;;;;;;;5129580;27;20046;-69
2021/12/10 06:31:16;;;;;;;8.13;5.43;;;;;;;;;;5135235;27;20106;-69
2021/12/10 06:33:41;;;;;;;7.77;5.60;;;;;;;;;;5132642;27;20106;-66
2021/12/10 06:36:07;;;;;;;8.23;5.68;;;;;;;;;;5113823;27;20051;-67
2021/12/10 06:38:34;;;;;;;7.80;5.87;;;;;;;;;;5132050;27;20019;-67
2021/12/10 06:40:59;;;;;;;7.33;5.77;;;;;;;;;;5130614;27;20019;-68
2021/12/10 06:43:25;;;;;;;7.37;5.83;;;;;;;;;;5113982;27;20026;-69
2021/12/10 06:45:51;;;;;;;7.47;4.95;;;;;;;;;;5114507;27;20114;-69
2021/12/10 06:48:17;;;;;;;5.90;4.50;;;;;;;;;;5136179;27;20050;-68
2021/12/10 06:50:44;;;;;;;5.17;4.40;;;;;;;;;;5131073;27;20081;-65
2021/12/10 06:53:09;;;;;;;7.40;4.27;;;;;;;;;;5127863;27;20054;-70
2021/12/10 06:55:35;;;;;;;6.63;4.37;;;;;;;;;;5130428;27;20043;-66
2021/12/10 06:58:00;;;;;;;5.47;4.30;;;;;;;;;;5113575;27;20027;-66
2021/12/10 07:00:32;;;;;;;6.57;4.43;;;;;;;;;;5121885;27;20506;-66
2021/12/10 07:02:58;;;;;;;5.67;4.33;;;;;;;;;;5128544;27;20088;-68
2021/12/10 07:05:23;;;;;;;4.90;3.93;;;;;;;;;;5132274;27;20023;-68
2021/12/10 07:07:48;;;;;;;5.45;4.40;;;;;;;;;;5127791;27;20073;-68
2021/12/10 07:10:16;;;;;;;6.27;4.30;;;;;;;;;;5132128;27;20021;-68
2021/12/10 07:12:42;;;;;;;6.53;4.23;;;;;;;;;;5130888;27;20034;-68
2021/12/10 07:15:09;;;;;;;5.80;4.57;;;;;;;;;;5113324;27;20026;-68
2021/12/10 07:17:35;;;;;;;6.00;4.33;;;;;;;;;;5127621;28;20475;-68
2021/12/10 07:20:00;;;;;;;4.50;4.10;;;;;;;;;;5114088;28;20023;-68
2021/12/10 07:22:25;;;;;;;6.17;4.47;;;;;;;;;;5132191;28;20489;-68
2021/12/10 07:24:50;;;;;;;6.20;4.40;;;;;;;;;;5093366;28;20504;-68
2021/12/10 07:27:15;;;;;;;4.82;3.63;;;;;;;;;;5110127;28;20480;-68
2021/12/10 07:29:41;;;;;;;4.82;3.88;;;;;;;;;;5124606;27;20015;-68
2021/12/10 07:32:06;;;;;;;6.80;4.28;;;;;;;;;;5112688;28;20038;-68
2021/12/10 07:34:32;;;;;;;7.15;3.95;;;;;;;;;;5113349;28;20096;-68
2021/12/10 07:36:57;;;;;;;4.97;3.80;;;;;;;;;;5132341;28;20023;-68
2021/12/10 07:39:22;;;;;;;6.35;4.22;;;;;;;;;;5113514;28;20418;-68
2021/12/10 07:41:47;;;;;;;4.90;4.03;;;;;;;;;;5093848;28;20047;-68
2021/12/10 07:44:13;;;;;;;4.47;4.03;;;;;;;;;;5103732;28;20121;-68
2021/12/10 07:46:40;;;;;;;5.40;3.97;;;;;;;;;;5113530;28;20023;-68
2021/12/10 07:49:14;;;;;;;6.63;4.30;;;;;;;;;;5132348;27;20022;-68
2021/12/10 07:51:40;;;;;;;5.15;4.38;;;;;;;;;;5136097;27;20019;-68
2021/12/10 07:54:05;;;;;;;5.07;4.57;;;;;;;;;;5099247;27;20073;-68
2021/12/10 07:56:31;;;;;;;4.10;3.70;;;;;;;;;;5099700;27;20015;-68
2021/12/10 07:58:56;;;;;;;6.05;4.25;;;;;;;;;;5132372;27;20041;-68
2021/12/10 08:01:24;;;;;;;4.43;3.78;;;;;;;;;;5135480;27;20014;-68
2021/12/10 08:03:50;;;;;;;4.50;3.75;;;;;;;;;;5136299;27;20031;-68
2021/12/10 08:06:17;;;;;;;5.10;3.78;;;;;;;;;;5112599;28;20035;-68
2021/12/10 08:08:42;;;;;;;4.43;3.42;;;;;;;;;;5125904;27;20113;-68
2021/12/10 08:11:08;;;;;;;3.60;3.30;;;;;;;;;;5117330;27;20106;-68
2021/12/10 08:13:33;;;;;;;4.93;3.75;;;;;;;;;;5132367;27;20034;-68
2021/12/10 08:15:58;;;;;;;6.22;4.05;;;;;;;;;;5134619;27;20042;-68
2021/12/10 08:18:24;;;;;;;4.38;3.75;;;;;;;;;;5131798;27;20094;-68
2021/12/10 08:20:49;;;;;;;5.32;3.92;;;;;;;;;;5116276;27;20011;-68
2021/12/10 08:23:15;;;;;;;4.78;3.58;;;;;;;;;;5115012;27;20027;-68
2021/12/10 08:25:40;;;;;;;4.03;3.40;;;;;;;;;;5133691;27;20491;-68
2021/12/10 08:28:06;;;;;;;4.85;3.90;;;;;;;;;;5116198;27;20027;-68
2021/12/10 08:30:31;;;;;;;4.97;3.60;;;;;;;;;;5109599;27;20111;-68
2021/12/10 08:32:57;;;;;;;4.80;3.10;;;;;;;;;;5134514;27;20035;-68
2021/12/10 08:35:24;;;;;;;4.05;3.33;;;;;;;;;;5134989;27;20102;-68
2021/12/10 08:37:51;;;;;;;3.58;3.25;;;;;;;;;;5134204;27;20019;-68
2021/12/10 08:40:22;;;;;;;3.33;3.00;;;;;;;;;;5134218;27;20020;-68
2021/12/10 08:42:48;;;;;;;4.72;3.28;;;;;;;;;;5115466;27;20481;-68
2021/12/10 08:45:13;;;;;;;5.35;3.97;;;;;;;;;;5134341;27;20038;-68
2021/12/10 08:47:38;;;;;;;5.38;3.88;;;;;;;;;;5114215;27;20117;-69
2021/12/10 08:50:05;;;;;;;5.13;4.18;;;;;;;;;;5115924;27;20059;-68
2021/12/10 08:52:31;;;;;;;5.88;4.15;;;;;;;;;;5134605;27;20023;-67
2021/12/10 08:54:56;;;;;;;4.85;4.00;;;;;;;;;;5133535;27;20030;-68
2021/12/10 08:57:22;;;;;;;5.88;4.40;;;;;;;;;;5115447;27;20023;-69
2021/12/10 08:59:48;;;;;;;5.47;4.30;;;;;;;;;;5107625;27;20024;-69
2021/12/10 09:02:13;;;;;;;6.25;4.50;;;;;;;;;;5115574;27;20050;-68
2021/12/10 09:04:39;;;;;;;6.63;5.20;;;;;;;;;;5133612;27;20037;-69
2021/12/10 09:07:06;;;;;;;7.07;4.57;;;;;;;;;;5115622;27;20116;-68
2021/12/10 09:09:32;;;;;;;6.43;3.92;;;;;;;;;;5130495;27;20547;-68
2021/12/10 09:11:59;;;;;;;8.50;4.13;;;;;;;;;;5133973;27;20042;-68
2021/12/10 09:14:28;;;;;;;5.28;3.85;;;;;;;;;;5115891;27;20603;-68
2021/12/10 09:16:55;;;;;;;4.72;3.95;;;;;;;;;;5110271;27;20019;-72
2021/12/10 09:19:21;;;;;;;4.32;3.70;;;;;;;;;;5111219;28;20062;-68
2021/12/10 09:21:46;;;;;;;4.65;3.65;;;;;;;;;;5128316;27;20047;-69
2021/12/10 09:24:13;;;;;;;4.10;3.70;;;;;;;;;;5098316;27;20031;-67
2021/12/10 09:26:41;;;;;;;4.00;3.42;;;;;;;;;;5132856;27;20066;-69
2021/12/10 09:29:08;;;;;;;5.07;4.10;;;;;;;;;;5124272;27;20325;-67
2021/12/10 09:31:33;;;;;;;4.78;3.83;;;;;;;;;;5132319;27;20495;-67
2021/12/10 09:34:00;;;;;;;3.85;3.13;;;;;;;;;;5129487;27;20022;-66
2021/12/10 09:36:26;;;;;;;3.13;2.83;;;;;;;;;;5114290;27;20527;-68
2021/12/10 09:38:51;;;;;;;4.93;3.55;;;;;;;;;;5132994;27;20023;-68
2021/12/10 09:41:17;;;;;;;3.53;3.20;;;;;;;;;;5113342;27;20027;-68
2021/12/10 09:43:42;;;;;;;3.75;3.38;;;;;;;;;;5132734;27;20023;-69
2021/12/10 09:46:09;;;;;;;3.42;2.90;;;;;;;;;;5127841;27;20387;-68
2021/12/10 09:48:34;;;;;;;2.90;2.67;;;;;;;;;;5132532;27;20023;-72
2021/12/10 09:51:04;;;;;;;3.03;2.35;;;;;;;;;;5132578;27;20026;-66
2021/12/10 09:53:30;;;;;;;2.30;2.10;;;;;;;;;;5125016;27;20483;-70
2021/12/10 09:55:57;;;;;;;2.08;1.85;;;;;;;;;;5113581;27;20053;-69
2021/12/10 09:58:22;;;;;;;2.72;2.10;;;;;;;;;;5113214;27;20015;-70
2021/12/10 10:01:14;;;;;;;1.90;1.70;;;;;;;;;;5134556;27;20027;-67
2021/12/10 10:03:41;;;;;;;2.35;2.00;;;;;;;;;;5112196;27;20039;-69
2021/12/10 10:06:06;;;;;;;2.00;1.40;;;;;;;;;;5133152;27;20031;-69
2021/12/10 10:08:32;;;;;;;2.47;1.30;;;;;;;;;;5133484;27;20547;-68
2021/12/10 10:11:01;;;;;;;1.83;1.40;;;;;;;;;;5113757;27;20503;-69
2021/12/10 10:13:29;;;;;;;1.88;1.60;;;;;;;;;;5110656;27;20033;-68
2021/12/10 10:15:57;;;;;;;1.80;1.70;;;;;;;;;;5133074;27;20027;-68
2021/12/10 10:18:23;;;;;;;1.98;1.75;;;;;;;;;;5110891;27;20020;-68
2021/12/10 10:20:50;;;;;;;2.47;1.83;;;;;;;;;;5132649;27;20068;-69
2021/12/10 10:23:15;;;;;;;2.47;2.28;;;;;;;;;;5105370;27;20027;-68
2021/12/10 10:25:43;;;;;;;2.35;2.15;;;;;;;;;;5116144;27;20501;-68
2021/12/10 10:28:10;;;;;;;1.80;1.70;;;;;;;;;;5132253;27;20467;-69
2021/12/10 10:30:46;;;;;;;3.95;2.00;;;;;;;;;;5110074;27;20419;-68
2021/12/10 10:33:11;;;;;;;2.35;2.05;;;;;;;;;;5131868;27;20023;-68
2021/12/10 10:35:43;;;;;;;2.33;2.13;;;;;;;;;;5110951;28;20030;-68
2021/12/10 10:38:09;;;;;;;2.60;2.40;;;;;;;;;;5101902;27;20458;-68
2021/12/10 10:40:36;;;;;;;3.03;2.70;;;;;;;;;;5112624;27;20011;-69
2021/12/10 10:43:04;;;;;;;3.38;2.63;;;;;;;;;;5110211;27;20067;-69
2021/12/10 10:45:33;;;;;;;2.40;2.20;;;;;;;;;;5114306;27;20383;-69
2021/12/10 10:47:59;;;;;;;2.67;2.47;;;;;;;;;;5112024;27;20169;-69
2021/12/10 10:50:27;;;;;;;2.70;2.50;;;;;;;;;;5112327;27;20016;-69
2021/12/10 10:52:54;;;;;;;3.35;2.75;;;;;;;;;;5121022;27;20051;-69
2021/12/10 10:55:25;;;;;;;3.83;2.80;;;;;;;;;;5130146;27;20026;-69
2021/12/10 10:57:53;;;;;;;2.72;2.05;;;;;;;;;;5132612;27;20023;-69
2021/12/10 11:00:22;;;;;;;2.78;2.58;;;;;;;;;;5127597;27;20023;-69
2021/12/10 11:02:52;;;;;;;4.00;2.58;;;;;;;;;;5110326;28;20039;-69
2021/12/10 11:05:19;;;;;;;2.30;2.10;;;;;;;;;;5108803;28;20051;-69
2021/12/10 11:07:47;;;;;;;2.53;2.20;;;;;;;;;;5112124;28;20016;-69
2021/12/10 11:10:12;;;;;;;3.63;3.33;;;;;;;;;;5111933;28;20023;-69
2021/12/10 11:12:39;;;;;;;3.50;2.75;;;;;;;;;;5076811;28;20089;-69
2021/12/10 11:15:09;;;;;;;2.53;2.33;;;;;;;;;;5109666;28;20069;-69
2021/12/10 11:17:37;;;;;;;2.63;2.42;;;;;;;;;;5107794;28;20052;-70
2021/12/10 11:20:02;;;;;;;2.47;2.28;;;;;;;;;;5091535;28;20059;-69
2021/12/10 11:22:28;;;;;;;2.77;2.20;;;;;;;;;;5109287;28;20046;-69
2021/12/10 11:25:02;;;;;;;2.35;2.10;;;;;;;;;;5114188;28;20269;-69
2021/12/10 11:27:31;;;;;;;2.25;2.10;;;;;;;;;;5093329;28;20047;-70
2021/12/10 11:30:02;;;;;;;2.53;1.88;;;;;;;;;;5093145;28;20031;-69
2021/12/10 11:32:30;;;;;;;2.28;2.10;;;;;;;;;;5114212;28;20020;-70
2021/12/10 11:34:57;;;;;;;3.15;1.58;;;;;;;;;;5097960;28;20046;-68
2021/12/10 11:37:40;;;;;;;2.13;1.40;;;;;;;;;;5115900;28;20020;-70
2021/12/10 11:40:08;;;;;;;1.73;1.40;;;;;;;;;;5100884;28;20027;-70
2021/12/10 11:42:39;;;;;;;1.35;1.20;;;;;;;;;;5109356;28;20084;-70
2021/12/10 11:45:29;;;;;;;1.33;1.17;;;;;;;;;;5096992;28;20011;-69
2021/12/10 11:48:04;;;;;;;1.58;1.13;;;;;;;;;;5095984;28;20030;-69
2021/12/10 11:50:29;;;;;;;1.30;1.20;;;;;;;;;;5115877;28;20073;-68
2021/12/10 11:53:07;;;;;;;1.38;1.02;;;;;;;;;;5115152;28;20023;-68
2021/12/10 11:55:33;;;;;;;1.55;1.05;;;;;;;;;;5096627;28;20023;-68
2021/12/10 11:57:59;;;;;;;1.23;1.13;;;;;;;;;;5075051;28;20451;-69
2021/12/10 12:00:26;;;;;;;1.13;1.02;;;;;;;;;;5091888;28;20047;-69
2021/12/10 12:02:55;;;;;;;2.38;1.10;;;;;;;;;;5104823;28;20075;-69
2021/12/10 12:05:23;;;;;;;1.35;1.25;;;;;;;;;;5136527;27;20110;-68
2021/12/10 12:07:49;;;;;;;1.27;1.17;;;;;;;;;;5123330;27;20027;-68
2021/12/10 12:10:26;;;;;;;1.20;1.10;;;;;;;;;;5132358;27;20050;-68
2021/12/10 12:13:02;;;;;;;1.30;1.17;;;;;;;;;;5117018;27;20031;-69
2021/12/10 12:15:29;;;;;;;1.23;1.10;;;;;;;;;;5135630;27;20015;-68
2021/12/10 12:18:14;;;;;;;1.77;1.38;;;;;;;;;;5134328;27;20049;-68
2021/12/10 12:20:41;;;;;;;1.52;1.38;;;;;;;;;;5129651;27;20034;-69
2021/12/10 12:25:52;;;;;;;3.08;2.00;;;;;;;;;;5135710;27;20116;-68
2021/12/10 12:28:18;;;;;;;2.03;1.80;;;;;;;;;;5115841;27;20479;-68
2021/12/10 12:30:54;;;;;;;2.63;2.30;;;;;;;;;;5123197;27;20019;-69
2021/12/10 12:33:19;;;;;;;4.13;2.97;;;;;;;;;;5132353;27;20051;-70
2021/12/10 12:35:45;;;;;;;2.33;2.13;;;;;;;;;;5116774;27;20321;-68
2021/12/10 12:38:20;;;;;;;2.97;2.42;;;;;;;;;;5134760;27;20428;-69
2021/12/10 12:40:46;;;;;;;2.35;1.90;;;;;;;;;;5135138;27;20077;-68
2021/12/10 12:43:11;;;;;;;4.40;2.63;;;;;;;;;;5134643;27;20027;-69
2021/12/10 12:45:38;;;;;;;3.22;2.22;;;;;;;;;;5134982;27;20386;-68
2021/12/10 12:48:08;;;;;;;3.92;3.53;;;;;;;;;;5134145;27;20509;-68
2021/12/10 12:50:34;;;;;;;3.30;2.72;;;;;;;;;;5134716;27;20057;-68
2021/12/10 12:53:05;;;;;;;2.75;2.40;;;;;;;;;;5134317;27;20087;-67
2021/12/10 12:55:49;;;;;;;4.30;3.47;;;;;;;;;;5134983;27;20472;-68
2021/12/10 12:58:17;;;;;;;4.15;3.17;;;;;;;;;;5133939;27;20019;-68
2021/12/10 13:00:42;;;;;;;5.13;3.78;;;;;;;;;;5116773;27;20063;-68
2021/12/10 13:03:19;;;;;;;5.72;4.47;;;;;;;;;;5132462;27;20047;-67
2021/12/10 13:06:09;;;;;;;5.55;4.40;;;;;;;;;;5133552;27;20048;-68
2021/12/10 13:08:37;;;;;;;5.03;4.15;;;;;;;;;;5126137;27;20030;-67
2021/12/10 13:11:08;;;;;;;5.75;3.60;;;;;;;;;;5119454;27;20475;-68
2021/12/10 13:13:38;;;;;;;6.85;4.18;;;;;;;;;;5110600;27;20569;-68
2021/12/10 13:16:07;;;;;;;5.03;3.67;;;;;;;;;;5116285;27;20352;-68
2021/12/10 13:18:33;;;;;;;5.68;4.53;;;;;;;;;;5121524;27;20044;-68
2021/12/10 13:20:58;;;;;;;6.57;4.30;;;;;;;;;;5134275;27;20035;-68
2021/12/10 13:23:24;;;;;;;5.13;4.22;;;;;;;;;;5114993;27;20096;-68
2021/12/10 13:25:51;;;;;;;7.38;4.47;;;;;;;;;;5114996;27;20330;-68
2021/12/10 13:28:17;;;;;;;5.97;4.72;;;;;;;;;;5132928;27;20023;-66
2021/12/10 13:30:47;;;;;;;6.80;4.78;;;;;;;;;;5125631;27;20360;-67
2021/12/10 13:33:13;;;;;;;7.63;5.32;;;;;;;;;;5135079;27;20023;-69
2021/12/10 13:35:39;;;;;;;6.57;5.40;;;;;;;;;;5139109;27;20091;-67
2021/12/10 13:38:06;;;;;;;5.68;4.57;;;;;;;;;;5140317;27;20136;-67
2021/12/10 13:40:34;;;;;;;5.95;4.10;;;;;;;;;;5122872;27;20047;-68
2021/12/10 13:43:03;;;;;;;7.78;5.32;;;;;;;;;;5132260;27;20038;-68
2021/12/10 13:45:28;;;;;;;5.38;4.32;;;;;;;;;;5134086;27;20387;-68
2021/12/10 13:48:02;;;;;;;5.38;4.68;;;;;;;;;;5142806;27;20011;-68
2021/12/10 13:50:28;;;;;;;5.75;4.55;;;;;;;;;;5133521;27;20015;-69
2021/12/10 13:52:55;;;;;;;7.97;4.97;;;;;;;;;;5132853;27;20493;-68
2021/12/10 13:55:22;;;;;;;6.82;4.65;;;;;;;;;;5116608;27;20096;-69
2021/12/10 13:58:07;;;;;;;6.30;5.10;;;;;;;;;;5115033;27;20554;-68
2021/12/10 14:00:32;;;;;;;6.95;5.10;;;;;;;;;;5126988;27;20096;-68
2021/12/10 14:02:57;;;;;;;6.78;5.00;;;;;;;;;;5114224;27;20067;-69
2021/12/10 14:05:28;;;;;;;7.65;5.35;;;;;;;;;;5132718;27;20144;-68
2021/12/10 14:08:03;;;;;;;8.43;6.15;;;;;;;;;;5114247;27;20052;-69
2021/12/10 14:10:31;;;;;;;9.80;5.47;;;;;;;;;;5133653;27;20046;-69
2021/12/10 14:12:59;;;;;;;8.02;5.93;;;;;;;;;;5114666;27;20062;-67
2021/12/10 14:15:39;;;;;;;8.32;6.90;;;;;;;;;;5133224;27;20102;-67
2021/12/10 14:18:20;;;;;;;6.07;4.82;;;;;;;;;;5131434;27;20015;-66
2021/12/10 14:20:46;;;;;;;4.97;4.28;;;;;;;;;;5133152;27;20087;-67
2021/12/10 14:23:16;;;;;;;7.05;5.07;;;;;;;;;;5133997;27;20050;-67
2021/12/10 14:25:41;;;;;;;8.15;5.80;;;;;;;;;;5133182;27;20391;-68
2021/12/10 14:28:14;;;;;;;6.85;5.20;;;;;;;;;;5132192;27;20044;-68
2021/12/10 14:30:44;;;;;;;7.47;5.00;;;;;;;;;;5121486;27;20027;-67
2021/12/10 14:33:24;;;;;;;9.23;5.40;;;;;;;;;;5131885;27;20033;-68
2021/12/10 14:35:49;;;;;;;8.63;5.55;;;;;;;;;;5115068;27;20027;-67
2021/12/10 14:38:15;;;;;;;8.20;5.30;;;;;;;;;;5131907;27;20023;-68
2021/12/10 14:40:47;;;;;;;6.95;4.72;;;;;;;;;;5114889;27;20142;-67
2021/12/10 14:43:14;;;;;;;7.07;5.00;;;;;;;;;;5114323;27;20475;-67
2021/12/10 14:45:58;;;;;;;6.95;4.90;;;;;;;;;;5114389;27;20027;-68
2021/12/10 14:48:23;;;;;;;6.70;4.68;;;;;;;;;;5129745;27;20027;-68
2021/12/10 14:51:01;;;;;;;7.07;4.68;;;;;;;;;;5127207;27;20034;-69
2021/12/10 14:53:26;;;;;;;7.97;5.00;;;;;;;;;;5110718;27;20429;-67
2021/12/10 14:55:51;;;;;;;7.15;5.10;;;;;;;;;;5121429;27;20034;-67